createdAt,value
2023-03-28T00:01:59.336Z,8.40
2023-03-28T00:04:45.747Z,16.23
2023-03-28T00:07:33.560Z,12.57
2023-03-28T00:10:20.752Z,12.70
2023-03-28T00:13:07.073Z,9.18
2023-03-28T00:15:53.598Z,12.32
2023-03-28T00:18:40.286Z,12.98
2023-03-28T00:21:29.471Z,7.88
2023-03-28T00:24:21.258Z,13.32
2023-03-28T00:27:08.344Z,7.95
2023-03-28T00:29:54.568Z,7.70
2023-03-28T00:32:40.982Z,13.02
2023-03-28T00:35:27.734Z,14.00
2023-03-28T00:38:15.562Z,12.32
2023-03-28T00:41:05.734Z,21.73
2023-03-28T00:46:42.880Z,12.00
2023-03-28T00:49:30.061Z,9.23
2023-03-28T00:52:18.824Z,12.95
2023-03-28T00:55:09.120Z,14.32
2023-03-28T00:57:57.075Z,7.63
2023-03-28T01:00:47.086Z,8.45
2023-03-28T01:03:37.685Z,12.90
2023-03-28T01:06:26.870Z,15.95
2023-03-28T01:09:15.376Z,8.95
2023-03-28T01:12:07.624Z,20.83
2023-03-28T01:14:56.567Z,14.00
2023-03-28T01:17:46.450Z,9.73
2023-03-28T01:20:52.577Z,9.60
2023-03-28T01:24:21.095Z,8.70
2023-03-28T01:27:16.159Z,20.20
2023-03-28T01:30:37.814Z,8.63
2023-03-28T01:34:04.725Z,12.20
2023-03-28T01:37:06.633Z,10.35
2023-03-28T01:40:19.168Z,12.00
2023-03-28T01:43:24.052Z,7.43
2023-03-28T01:46:16.941Z,11.10
2023-03-28T01:49:08.878Z,11.40
2023-03-28T01:51:59.238Z,8.18
2023-03-28T01:54:53.101Z,10.88
2023-03-28T01:57:43.249Z,11.85
2023-03-28T02:00:36.239Z,12.70
2023-03-28T02:03:30.255Z,16.25
2023-03-28T02:06:39.606Z,15.68
2023-03-28T02:09:34.123Z,14.88
2023-03-28T02:12:31.641Z,12.70
2023-03-28T02:15:27.956Z,18.83
2023-03-28T02:18:39.116Z,18.83
2023-03-28T02:21:52.228Z,16.65
2023-03-28T02:24:52.066Z,13.15
2023-03-28T02:28:02.510Z,14.48
2023-03-28T02:30:56.382Z,16.30
2023-03-28T02:33:44.684Z,14.13
2023-03-28T02:36:39.372Z,11.60
2023-03-28T02:39:44.487Z,8.93
2023-03-28T02:42:55.857Z,16.10
2023-03-28T02:46:14.648Z,7.22
2023-03-28T02:49:21.573Z,11.55
2023-03-28T02:52:14.682Z,9.60
2023-03-28T02:55:06.606Z,11.95
2023-03-28T02:58:01.270Z,13.63
2023-03-28T03:00:49.429Z,12.50
2023-03-28T03:03:37.883Z,14.35
2023-03-28T03:06:24.582Z,12.23
2023-03-28T03:09:10.901Z,11.95
2023-03-28T03:11:57.198Z,15.95
2023-03-28T03:14:44.141Z,15.32
2023-03-28T03:17:50.999Z,18.67
2023-03-28T03:20:45.605Z,14.05
2023-03-28T03:23:32.173Z,12.40
2023-03-28T03:26:19.913Z,9.88
2023-03-28T03:29:22.948Z,14.60
2023-03-28T03:32:10.271Z,10.43
2023-03-28T03:35:02.138Z,15.23
2023-03-28T03:37:50.439Z,11.35
2023-03-28T03:40:36.778Z,7.85
2023-03-28T03:43:24.501Z,12.00
2023-03-28T03:46:10.949Z,8.85
2023-03-28T03:48:58.010Z,14.57
2023-03-28T03:51:44.514Z,14.50
2023-03-28T03:54:38.196Z,10.63
2023-03-28T03:57:25.244Z,21.80
2023-03-28T04:00:18.882Z,15.05
2023-03-28T04:03:09.160Z,19.25
2023-03-28T04:06:11.021Z,10.48
2023-03-28T04:08:57.229Z,11.80
2023-03-28T04:12:05.844Z,12.77
2023-03-28T04:15:02.475Z,16.35
2023-03-28T04:17:56.908Z,11.73
2023-03-28T04:20:49.579Z,30.13
2023-03-28T04:23:48.327Z,20.35
2023-03-28T04:26:50.066Z,22.90
2023-03-28T04:29:41.697Z,19.58
2023-03-28T04:32:50.412Z,13.85
2023-03-28T04:35:43.100Z,23.30
2023-03-28T04:38:31.750Z,24.55
2023-03-28T04:41:30.130Z,16.08
2023-03-28T04:44:22.445Z,17.27
2023-03-28T04:47:18.474Z,34.28
2023-03-28T04:50:05.627Z,14.70
2023-03-28T04:52:55.456Z,19.83
2023-03-28T04:55:44.029Z,22.63
2023-03-28T04:58:39.152Z,20.08
2023-03-28T05:01:27.360Z,19.13
2023-03-28T05:04:35.362Z,20.95
2023-03-28T05:07:24.868Z,46.35
2023-03-28T05:10:13.974Z,29.42
2023-03-28T05:13:01.883Z,30.20
2023-03-28T05:15:49.909Z,24.77
2023-03-28T05:18:56.163Z,13.93
2023-03-28T05:22:06.730Z,22.92
2023-03-28T05:24:54.985Z,21.20
2023-03-28T05:27:41.785Z,33.00
2023-03-28T05:30:28.541Z,18.15
2023-03-28T05:33:16.387Z,70.47
2023-03-28T05:36:04.568Z,35.42
2023-03-28T05:38:53.887Z,24.80
2023-03-28T05:41:40.489Z,22.92
2023-03-28T05:44:26.598Z,45.03
2023-03-28T05:47:39.055Z,31.55
2023-03-28T05:50:26.298Z,20.42
2023-03-28T05:53:18.503Z,14.43
2023-03-28T05:56:07.482Z,11.85
2023-03-28T05:58:53.661Z,19.10
2023-03-28T06:01:43.155Z,34.50
2023-03-28T06:04:29.731Z,27.67
2023-03-28T06:07:18.548Z,18.48
2023-03-28T06:10:10.114Z,17.17
2023-03-28T06:12:58.649Z,16.58
2023-03-28T06:15:45.496Z,13.77
2023-03-28T06:18:31.841Z,17.75
2023-03-28T06:21:18.244Z,15.60
2023-03-28T06:24:05.737Z,18.83
2023-03-28T06:26:57.649Z,27.45
2023-03-28T06:29:45.844Z,24.90
2023-03-28T06:32:32.514Z,22.27
2023-03-28T06:35:19.639Z,21.33
2023-03-28T06:38:06.133Z,17.90
2023-03-28T06:40:53.167Z,20.42
2023-03-28T06:43:39.585Z,18.58
2023-03-28T06:46:28.869Z,24.10
2023-03-28T06:49:16.160Z,16.52
2023-03-28T06:52:22.556Z,22.42
2023-03-28T06:55:10.668Z,20.08
2023-03-28T06:57:57.054Z,16.27
2023-03-28T07:00:52.131Z,19.00
2023-03-28T07:03:59.532Z,18.23
2023-03-28T07:06:46.806Z,19.35
2023-03-28T07:09:33.219Z,22.52
2023-03-28T07:12:30.272Z,18.73
2023-03-28T07:15:19.073Z,19.50
2023-03-28T07:18:10.304Z,16.70
2023-03-28T07:21:04.122Z,20.83
2023-03-28T07:23:52.018Z,15.05
2023-03-28T07:26:42.233Z,18.17
2023-03-28T07:29:28.792Z,36.72
2023-03-28T07:32:16.770Z,15.88
2023-03-28T07:35:07.481Z,14.80
2023-03-28T07:38:01.783Z,16.30
2023-03-28T07:41:09.063Z,15.70
2023-03-28T07:43:56.046Z,17.13
2023-03-28T07:46:44.336Z,20.05
2023-03-28T07:49:31.333Z,20.05
2023-03-28T07:52:18.177Z,20.33
2023-03-28T07:55:06.539Z,24.08
2023-03-28T07:57:57.079Z,16.23
2023-03-28T08:00:46.975Z,14.80
2023-03-28T08:03:52.931Z,21.20
2023-03-28T08:06:41.332Z,15.98
2023-03-28T08:09:28.478Z,18.38
2023-03-28T08:12:34.725Z,15.95
2023-03-28T08:15:21.435Z,13.98
2023-03-28T08:18:07.897Z,15.98
2023-03-28T08:21:01.048Z,18.27
2023-03-28T08:23:50.592Z,15.85
2023-03-28T08:26:37.535Z,13.95
2023-03-28T08:29:25.469Z,17.17
2023-03-28T08:32:11.888Z,13.65
2023-03-28T08:35:02.808Z,10.30
2023-03-28T08:37:51.354Z,16.42
2023-03-28T08:40:41.235Z,19.55
2023-03-28T08:43:50.625Z,11.70
2023-03-28T08:46:41.380Z,12.13
2023-03-28T08:49:28.277Z,14.07
2023-03-28T08:52:17.005Z,16.77
2023-03-28T08:55:08.454Z,11.02
2023-03-28T08:57:56.504Z,11.82
2023-03-28T09:00:42.981Z,11.43
2023-03-28T09:03:33.648Z,15.95
2023-03-28T09:06:28.059Z,11.73
2023-03-28T09:09:38.246Z,9.15
2023-03-28T09:13:01.006Z,15.45
2023-03-28T09:16:01.236Z,8.18
2023-03-28T09:21:59.590Z,11.25
2023-03-28T09:25:06.235Z,16.38
2023-03-28T09:28:00.049Z,10.55
2023-03-28T09:30:49.776Z,11.85
2023-03-28T09:33:40.591Z,7.22
2023-03-28T09:36:45.425Z,9.23
2023-03-28T09:39:39.447Z,10.90
2023-03-28T09:42:35.168Z,5.28
2023-03-28T09:45:58.396Z,11.88
2023-03-28T09:49:18.386Z,7.20
2023-03-28T09:52:16.617Z,11.85
2023-03-28T09:55:18.009Z,6.95
2023-03-28T09:58:08.345Z,5.95
2023-03-28T10:01:27.158Z,11.20
2023-03-28T10:04:49.139Z,8.15
2023-03-28T10:07:43.751Z,4.43
2023-03-28T10:11:07.847Z,7.25
2023-03-28T10:13:55.609Z,6.40
2023-03-28T10:16:43.827Z,8.07
2023-03-28T10:19:47.472Z,7.90
2023-03-28T10:22:40.885Z,9.05
2023-03-28T10:25:35.716Z,9.70
2023-03-28T10:28:31.679Z,7.93
2023-03-28T10:31:29.129Z,3.25
2023-03-28T10:34:27.813Z,3.22
2023-03-28T10:37:37.341Z,6.55
2023-03-28T10:40:44.007Z,6.40
2023-03-28T10:43:37.723Z,6.80
2023-03-28T10:46:40.983Z,5.95
2023-03-28T10:50:03.801Z,7.15
2023-03-28T10:52:58.674Z,10.68
2023-03-28T10:56:02.817Z,7.18
2023-03-28T11:02:36.144Z,6.88
2023-03-28T11:05:37.514Z,7.53
2023-03-28T11:08:41.663Z,9.43
2023-03-28T11:11:44.521Z,6.50
2023-03-28T11:14:44.208Z,8.32
2023-03-28T11:17:46.101Z,8.48
2023-03-28T11:20:45.420Z,8.52
2023-03-28T11:23:43.870Z,6.45
2023-03-28T11:27:15.962Z,5.20
2023-03-28T11:30:12.026Z,6.70
2023-03-28T11:33:13.125Z,6.00
2023-03-28T11:36:04.758Z,7.30
2023-03-28T11:38:56.298Z,5.88
2023-03-28T11:41:46.297Z,9.65
2023-03-28T11:44:45.524Z,3.28
2023-03-28T11:47:38.220Z,5.05
2023-03-28T11:50:36.344Z,7.70
2023-03-28T11:53:36.633Z,5.38
2023-03-28T11:56:32.762Z,7.15
2023-03-28T11:59:53.433Z,5.25
2023-03-28T12:02:43.686Z,6.20
2023-03-28T12:05:34.922Z,7.18
2023-03-28T12:08:32.332Z,5.35
2023-03-28T12:11:26.521Z,7.13
2023-03-28T12:14:36.062Z,5.13
2023-03-28T12:17:36.193Z,7.45
2023-03-28T12:20:32.709Z,11.10
2023-03-28T12:23:33.059Z,7.13
2023-03-28T12:26:57.097Z,6.07
2023-03-28T12:29:49.585Z,7.70
2023-03-28T12:32:48.301Z,6.40
2023-03-28T12:35:47.115Z,5.75
2023-03-28T12:38:45.628Z,7.60
2023-03-28T12:41:47.885Z,6.53
2023-03-28T12:44:43.116Z,4.90
2023-03-28T12:47:33.459Z,8.60
2023-03-28T12:53:13.214Z,7.05
2023-03-28T12:56:03.809Z,10.52
2023-03-28T12:58:53.565Z,11.25
2023-03-28T13:01:50.281Z,5.68
2023-03-28T13:04:49.801Z,6.45
2023-03-28T13:07:53.675Z,8.25
2023-03-28T13:10:45.723Z,7.05
2023-03-28T13:13:45.117Z,5.47
2023-03-28T13:16:46.096Z,5.88
2023-03-28T13:19:39.447Z,8.18
2023-03-28T13:22:29.660Z,7.05
2023-03-28T13:25:34.311Z,6.65
2023-03-28T13:28:30.829Z,7.38
2023-03-28T13:31:24.345Z,5.68
2023-03-28T13:34:22.430Z,8.75
2023-03-28T13:37:22.928Z,8.60
2023-03-28T13:40:48.136Z,5.90
2023-03-28T13:43:44.816Z,9.00
2023-03-28T13:46:37.277Z,6.30
2023-03-28T13:49:32.050Z,6.35
2023-03-28T13:52:24.432Z,6.75
2023-03-28T13:55:20.660Z,4.63
2023-03-28T13:58:13.728Z,8.13
2023-03-28T14:01:08.501Z,7.45
2023-03-28T14:03:56.867Z,6.55
2023-03-28T14:06:43.183Z,8.00
2023-03-28T14:09:34.685Z,7.40
2023-03-28T14:12:22.624Z,6.63
2023-03-28T14:15:13.306Z,7.68
2023-03-28T14:18:01.869Z,8.13
2023-03-28T14:20:49.945Z,6.95
2023-03-28T14:23:38.228Z,10.23
2023-03-28T14:26:28.518Z,10.10
2023-03-28T14:29:17.382Z,9.10
2023-03-28T14:32:08.118Z,8.98
2023-03-28T14:34:56.099Z,7.07
2023-03-28T14:37:51.082Z,10.38
2023-03-28T14:40:39.035Z,8.65
2023-03-28T14:43:29.972Z,8.80
2023-03-28T14:46:18.244Z,7.95
2023-03-28T14:49:09.201Z,9.77
2023-03-28T14:51:57.395Z,9.60
2023-03-28T14:54:47.933Z,7.43
2023-03-28T14:57:37.578Z,8.02
2023-03-28T15:00:29.061Z,10.00
2023-03-28T15:03:18.223Z,4.88
2023-03-28T15:06:05.169Z,7.18
2023-03-28T15:08:52.534Z,5.20
2023-03-28T15:11:43.770Z,4.35
2023-03-28T15:14:36.826Z,7.00
2023-03-28T15:17:24.936Z,8.75
2023-03-28T15:20:17.952Z,6.05
2023-03-28T15:23:07.733Z,5.55
2023-03-28T15:25:55.480Z,7.00
2023-03-28T15:28:43.113Z,7.57
2023-03-28T15:31:30.154Z,7.45
2023-03-28T15:34:21.896Z,5.40
2023-03-28T15:37:14.421Z,7.40
2023-03-28T15:40:22.656Z,9.68
2023-03-28T15:43:29.138Z,7.55
2023-03-28T15:46:16.980Z,7.00
2023-03-28T15:49:06.270Z,6.32
2023-03-28T15:51:57.987Z,10.85
2023-03-28T15:54:53.128Z,6.30
2023-03-28T15:57:39.789Z,8.38
2023-03-28T16:00:44.360Z,11.70
2023-03-28T16:03:34.593Z,10.25
2023-03-28T16:06:31.674Z,6.90
2023-03-28T16:09:21.648Z,8.65
2023-03-28T16:12:08.088Z,7.75
2023-03-28T16:15:21.926Z,8.23
2023-03-28T16:18:17.857Z,7.50
2023-03-28T16:21:12.187Z,7.38
2023-03-28T16:23:59.722Z,10.55
2023-03-28T16:26:46.804Z,10.25
2023-03-28T16:29:33.285Z,6.28
2023-03-28T16:32:23.724Z,6.45
2023-03-28T16:37:57.700Z,14.00
2023-03-28T16:40:45.263Z,9.93
2023-03-28T16:43:31.616Z,8.98
2023-03-28T16:46:18.133Z,12.75
2023-03-28T16:49:04.707Z,9.50
2023-03-28T16:51:51.593Z,9.20
2023-03-28T16:54:39.019Z,12.40
2023-03-28T16:57:25.276Z,16.27
2023-03-28T17:00:17.607Z,11.38
2023-03-28T17:03:05.102Z,6.65
2023-03-28T17:05:51.508Z,7.65
2023-03-28T17:08:38.089Z,7.35
2023-03-28T17:11:26.981Z,10.98
2023-03-28T17:14:13.568Z,9.18
2023-03-28T17:16:59.973Z,9.82
2023-03-28T17:19:46.717Z,9.25
2023-03-28T17:22:33.137Z,11.10
2023-03-28T17:25:19.514Z,8.18
2023-03-28T17:28:07.239Z,5.30
2023-03-28T17:30:53.727Z,11.82
2023-03-28T17:33:40.217Z,8.27
2023-03-28T17:36:28.357Z,11.85
2023-03-28T17:39:14.842Z,11.57
2023-03-28T17:42:01.360Z,15.20
2023-03-28T17:44:49.412Z,9.75
2023-03-28T17:47:35.824Z,9.63
2023-03-28T17:50:26.516Z,9.13
2023-03-28T17:53:12.766Z,7.30
2023-03-28T17:56:00.232Z,8.10
2023-03-28T17:58:47.594Z,7.13
2023-03-28T18:01:35.471Z,8.65
2023-03-28T18:04:22.124Z,9.50
2023-03-28T18:07:32.940Z,11.25
2023-03-28T18:10:21.374Z,10.18
2023-03-28T18:13:07.584Z,9.80
2023-03-28T18:15:54.018Z,9.13
2023-03-28T18:18:43.462Z,9.25
2023-03-28T18:21:33.119Z,8.38
2023-03-28T18:24:20.437Z,9.27
2023-03-28T18:27:06.628Z,8.65
2023-03-28T18:29:52.997Z,9.27
2023-03-28T18:32:39.378Z,9.02
2023-03-28T18:35:29.157Z,13.02
2023-03-28T18:38:18.821Z,7.78
2023-03-28T18:41:06.674Z,8.70
2023-03-28T18:43:54.356Z,10.95
2023-03-28T18:46:41.523Z,9.52
2023-03-28T18:49:28.512Z,10.98
2023-03-28T18:52:19.414Z,9.68
2023-03-28T18:55:06.970Z,11.65
2023-03-28T18:57:53.412Z,19.08
2023-03-28T19:00:40.562Z,10.07
2023-03-28T19:03:28.835Z,9.57
2023-03-28T19:06:17.762Z,10.32
2023-03-28T19:09:05.420Z,11.68
2023-03-28T19:11:52.427Z,11.30
2023-03-28T19:14:41.303Z,15.20
2023-03-28T19:17:27.778Z,14.32
2023-03-28T19:20:26.524Z,8.55
2023-03-28T19:23:15.242Z,9.43
2023-03-28T19:26:03.567Z,9.18
2023-03-28T19:28:51.395Z,10.48
2023-03-28T19:31:37.715Z,7.38
2023-03-28T19:34:24.197Z,7.53
2023-03-28T19:37:10.777Z,9.45
2023-03-28T19:39:59.249Z,7.28
2023-03-28T19:42:46.763Z,8.15
2023-03-28T19:45:33.355Z,7.72
2023-03-28T19:48:19.768Z,6.53
2023-03-28T19:51:06.443Z,7.18
2023-03-28T19:53:52.994Z,4.65
2023-03-28T19:56:41.892Z,4.85
2023-03-28T19:59:29.642Z,5.75
2023-03-28T20:02:16.043Z,7.32
2023-03-28T20:05:02.657Z,7.35
2023-03-28T20:07:49.356Z,5.35
2023-03-28T20:10:40.160Z,9.02
2023-03-28T20:13:26.956Z,6.43
2023-03-28T20:16:15.291Z,3.72
2023-03-28T20:19:01.560Z,6.22
2023-03-28T20:21:49.003Z,7.70
2023-03-28T20:24:35.777Z,5.75
2023-03-28T20:27:24.479Z,7.97
2023-03-28T20:30:12.242Z,6.38
2023-03-28T20:33:00.896Z,10.68
2023-03-28T20:35:52.520Z,5.03
2023-03-28T20:38:39.061Z,4.75
2023-03-28T20:41:26.453Z,6.13
2023-03-28T20:44:20.214Z,10.43
2023-03-28T20:47:08.613Z,7.47
2023-03-28T20:49:59.133Z,7.68
2023-03-28T20:52:45.925Z,5.65
2023-03-28T20:55:33.901Z,3.97
2023-03-28T20:58:19.989Z,4.45
2023-03-28T21:01:08.924Z,4.50
2023-03-28T21:03:57.345Z,4.72
2023-03-28T21:06:45.930Z,5.97
2023-03-28T21:09:32.308Z,3.80
2023-03-28T21:12:18.977Z,5.60
2023-03-28T21:15:06.690Z,6.75
2023-03-28T21:17:53.708Z,7.30
2023-03-28T21:20:40.136Z,5.10
2023-03-28T21:23:27.954Z,5.20
2023-03-28T21:26:17.327Z,5.18
2023-03-28T21:29:03.879Z,5.88
2023-03-28T21:31:50.057Z,4.57
2023-03-28T21:34:36.708Z,3.15
2023-03-28T21:37:23.151Z,4.45
2023-03-28T21:40:11.325Z,8.15
2023-03-28T21:42:57.669Z,6.60
2023-03-28T21:45:47.705Z,4.03
2023-03-28T21:48:34.333Z,5.93
2023-03-28T21:51:20.968Z,5.75
2023-03-28T21:54:07.353Z,4.13
2023-03-28T21:56:55.041Z,5.85
2023-03-28T21:59:41.855Z,4.78
2023-03-28T22:02:29.502Z,5.28
2023-03-28T22:05:28.673Z,2.90
2023-03-28T22:08:15.527Z,7.23
2023-03-28T22:11:03.789Z,4.15
2023-03-28T22:13:51.809Z,6.03
2023-03-28T22:16:39.990Z,5.60
2023-03-28T22:19:29.996Z,4.55
2023-03-28T22:22:17.848Z,5.45
2023-03-28T22:25:04.265Z,3.33
2023-03-28T22:27:50.424Z,3.60
2023-03-28T22:30:39.724Z,5.85
2023-03-28T22:33:26.345Z,3.07
2023-03-28T22:36:13.375Z,5.25
2023-03-28T22:39:00.468Z,8.57
2023-03-28T22:41:47.200Z,5.68
2023-03-28T22:44:33.568Z,7.05
2023-03-28T22:47:21.203Z,11.13
2023-03-28T22:50:09.894Z,5.82
2023-03-28T22:52:56.477Z,4.38
2023-03-28T22:55:44.562Z,6.18
2023-03-28T22:58:31.444Z,2.55
2023-03-28T23:01:18.171Z,5.57
2023-03-28T23:04:06.620Z,4.00
2023-03-28T23:06:53.632Z,4.90
2023-03-28T23:09:41.609Z,5.93
2023-03-28T23:12:27.787Z,3.28
2023-03-28T23:15:14.883Z,3.65
2023-03-28T23:18:01.002Z,4.63
2023-03-28T23:20:51.174Z,3.90
2023-03-28T23:26:23.769Z,3.53
2023-03-28T23:29:10.065Z,3.50
2023-03-28T23:31:56.490Z,6.70
2023-03-28T23:34:43.478Z,9.68
2023-03-28T23:37:31.058Z,7.97
2023-03-28T23:40:17.204Z,5.60
2023-03-28T23:43:03.283Z,2.90
2023-03-28T23:45:49.383Z,2.55
2023-03-28T23:48:36.147Z,3.45
2023-03-28T23:51:24.329Z,5.15
2023-03-28T23:54:12.656Z,5.35
2023-03-28T23:56:59.293Z,4.10
2023-03-28T23:59:45.770Z,2.92
